sensor_id;sensor_type;location;lat;lon;timestamp;P1;durP1;ratioP1;P2;durP2;ratioP2
54177;SDS011;40085;53.004;6.770;2022-08-16T00:01:04;5.38;;;4.03;;
54177;SDS011;40085;53.004;6.770;2022-08-16T00:03:30;5.43;;;4.13;;
54177;SDS011;40085;53.004;6.770;2022-08-16T00:05:56;9.32;;;4.75;;
54177;SDS011;40085;53.004;6.770;2022-08-16T00:08:21;7.32;;;5.05;;
54177;SDS011;40085;53.004;6.770;2022-08-16T00:10:47;8.10;;;5.28;;
54177;SDS011;40085;53.004;6.770;2022-08-16T00:13:13;7.03;;;5.30;;
54177;SDS011;40085;53.004;6.770;2022-08-16T00:15:40;5.43;;;4.85;;
54177;SDS011;40085;53.004;6.770;2022-08-16T00:18:08;6.47;;;4.85;;
54177;SDS011;40085;53.004;6.770;2022-08-16T00:20:35;7.22;;;5.07;;
54177;SDS011;40085;53.004;6.770;2022-08-16T00:23:03;6.72;;;5.10;;
54177;SDS011;40085;53.004;6.770;2022-08-16T00:25:29;7.22;;;5.00;;
54177;SDS011;40085;53.004;6.770;2022-08-16T00:27:55;8.40;;;5.70;;
54177;SDS011;40085;53.004;6.770;2022-08-16T00:30:21;6.35;;;5.38;;
54177;SDS011;40085;53.004;6.770;2022-08-16T00:32:48;8.05;;;5.00;;
54177;SDS011;40085;53.004;6.770;2022-08-16T00:35:18;6.35;;;4.88;;
54177;SDS011;40085;53.004;6.770;2022-08-16T00:37:47;6.38;;;5.10;;
54177;SDS011;40085;53.004;6.770;2022-08-16T00:40:16;7.47;;;4.22;;
54177;SDS011;40085;53.004;6.770;2022-08-16T00:42:51;9.48;;;5.22;;
54177;SDS011;40085;53.004;6.770;2022-08-16T00:47:44;6.43;;;4.93;;
54177;SDS011;40085;53.004;6.770;2022-08-16T00:50:11;7.75;;;4.70;;
54177;SDS011;40085;53.004;6.770;2022-08-16T00:52:39;7.15;;;5.35;;
54177;SDS011;40085;53.004;6.770;2022-08-16T00:55:06;10.02;;;5.78;;
54177;SDS011;40085;53.004;6.770;2022-08-16T00:57:33;8.27;;;5.30;;
54177;SDS011;40085;53.004;6.770;2022-08-16T01:00:00;7.53;;;5.43;;
54177;SDS011;40085;53.004;6.770;2022-08-16T01:02:26;7.47;;;5.20;;
54177;SDS011;40085;53.004;6.770;2022-08-16T01:04:52;7.82;;;5.28;;
54177;SDS011;40085;53.004;6.770;2022-08-16T01:07:18;7.35;;;5.47;;
54177;SDS011;40085;53.004;6.770;2022-08-16T01:09:44;7.80;;;5.10;;
54177;SDS011;40085;53.004;6.770;2022-08-16T01:12:10;7.18;;;4.82;;
54177;SDS011;40085;53.004;6.770;2022-08-16T01:14:41;7.95;;;5.35;;
54177;SDS011;40085;53.004;6.770;2022-08-16T01:17:11;11.50;;;5.63;;
54177;SDS011;40085;53.004;6.770;2022-08-16T01:19:40;8.30;;;5.38;;
54177;SDS011;40085;53.004;6.770;2022-08-16T01:24:39;6.60;;;4.95;;
54177;SDS011;40085;53.004;6.770;2022-08-16T01:27:13;8.27;;;5.43;;
54177;SDS011;40085;53.004;6.770;2022-08-16T01:29:44;8.98;;;6.18;;
54177;SDS011;40085;53.004;6.770;2022-08-16T01:32:15;8.80;;;6.85;;
54177;SDS011;40085;53.004;6.770;2022-08-16T01:34:41;10.50;;;6.25;;
54177;SDS011;40085;53.004;6.770;2022-08-16T01:37:09;7.75;;;5.93;;
54177;SDS011;40085;53.004;6.770;2022-08-16T01:39:36;7.95;;;5.90;;
54177;SDS011;40085;53.004;6.770;2022-08-16T01:42:02;8.43;;;6.25;;
54177;SDS011;40085;53.004;6.770;2022-08-16T01:44:31;8.48;;;6.32;;
54177;SDS011;40085;53.004;6.770;2022-08-16T01:46:57;8.05;;;6.03;;
54177;SDS011;40085;53.004;6.770;2022-08-16T01:49:26;9.63;;;6.68;;
54177;SDS011;40085;53.004;6.770;2022-08-16T01:51:57;8.20;;;6.07;;
54177;SDS011;40085;53.004;6.770;2022-08-16T01:54:26;8.82;;;6.35;;
54177;SDS011;40085;53.004;6.770;2022-08-16T01:56:52;13.35;;;6.75;;
54177;SDS011;40085;53.004;6.770;2022-08-16T01:59:17;10.00;;;6.97;;
54177;SDS011;40085;53.004;6.770;2022-08-16T02:01:47;9.13;;;6.20;;
54177;SDS011;40085;53.004;6.770;2022-08-16T02:04:14;11.27;;;6.57;;
54177;SDS011;40085;53.004;6.770;2022-08-16T02:06:41;9.88;;;6.35;;
54177;SDS011;40085;53.004;6.770;2022-08-16T02:09:08;9.05;;;6.88;;
54177;SDS011;40085;53.004;6.770;2022-08-16T02:11:35;10.13;;;6.50;;
54177;SDS011;40085;53.004;6.770;2022-08-16T02:14:01;8.30;;;6.10;;
54177;SDS011;40085;53.004;6.770;2022-08-16T02:16:28;9.50;;;6.50;;
54177;SDS011;40085;53.004;6.770;2022-08-16T02:18:53;8.63;;;6.60;;
54177;SDS011;40085;53.004;6.770;2022-08-16T02:21:19;9.38;;;6.07;;
54177;SDS011;40085;53.004;6.770;2022-08-16T02:23:45;10.70;;;6.50;;
54177;SDS011;40085;53.004;6.770;2022-08-16T02:26:11;9.63;;;6.78;;
54177;SDS011;40085;53.004;6.770;2022-08-16T02:28:39;10.40;;;7.43;;
54177;SDS011;40085;53.004;6.770;2022-08-16T02:31:06;9.77;;;6.60;;
54177;SDS011;40085;53.004;6.770;2022-08-16T02:33:34;8.32;;;6.07;;
54177;SDS011;40085;53.004;6.770;2022-08-16T02:36:00;9.40;;;6.78;;
54177;SDS011;40085;53.004;6.770;2022-08-16T02:38:27;7.80;;;5.80;;
54177;SDS011;40085;53.004;6.770;2022-08-16T02:40:54;8.38;;;5.63;;
54177;SDS011;40085;53.004;6.770;2022-08-16T02:43:24;8.60;;;6.20;;
54177;SDS011;40085;53.004;6.770;2022-08-16T02:45:51;8.10;;;6.38;;
54177;SDS011;40085;53.004;6.770;2022-08-16T02:48:17;9.35;;;6.88;;
54177;SDS011;40085;53.004;6.770;2022-08-16T02:50:43;9.75;;;6.07;;
54177;SDS011;40085;53.004;6.770;2022-08-16T02:53:08;9.38;;;6.45;;
54177;SDS011;40085;53.004;6.770;2022-08-16T02:55:35;11.50;;;6.22;;
54177;SDS011;40085;53.004;6.770;2022-08-16T02:58:01;8.82;;;6.45;;
54177;SDS011;40085;53.004;6.770;2022-08-16T03:00:27;10.27;;;6.60;;
54177;SDS011;40085;53.004;6.770;2022-08-16T03:02:53;9.27;;;7.00;;
54177;SDS011;40085;53.004;6.770;2022-08-16T03:05:20;9.40;;;6.40;;
54177;SDS011;40085;53.004;6.770;2022-08-16T03:07:46;7.75;;;6.45;;
54177;SDS011;40085;53.004;6.770;2022-08-16T03:10:12;8.40;;;6.03;;
54177;SDS011;40085;53.004;6.770;2022-08-16T03:12:38;10.20;;;6.45;;
54177;SDS011;40085;53.004;6.770;2022-08-16T03:15:05;11.93;;;7.10;;
54177;SDS011;40085;53.004;6.770;2022-08-16T03:17:32;9.75;;;6.80;;
54177;SDS011;40085;53.004;6.770;2022-08-16T03:19:59;8.75;;;6.65;;
54177;SDS011;40085;53.004;6.770;2022-08-16T03:22:25;16.08;;;6.65;;
54177;SDS011;40085;53.004;6.770;2022-08-16T03:24:51;9.38;;;6.63;;
54177;SDS011;40085;53.004;6.770;2022-08-16T03:27:17;7.90;;;6.63;;
54177;SDS011;40085;53.004;6.770;2022-08-16T03:29:43;10.60;;;7.03;;
54177;SDS011;40085;53.004;6.770;2022-08-16T03:32:08;10.48;;;6.97;;
54177;SDS011;40085;53.004;6.770;2022-08-16T03:34:34;10.95;;;6.53;;
54177;SDS011;40085;53.004;6.770;2022-08-16T03:37:00;9.48;;;7.32;;
54177;SDS011;40085;53.004;6.770;2022-08-16T03:39:26;10.13;;;7.40;;
54177;SDS011;40085;53.004;6.770;2022-08-16T03:41:52;11.27;;;7.75;;
54177;SDS011;40085;53.004;6.770;2022-08-16T03:44:19;11.80;;;7.05;;
54177;SDS011;40085;53.004;6.770;2022-08-16T03:46:44;10.70;;;7.05;;
54177;SDS011;40085;53.004;6.770;2022-08-16T03:49:10;7.38;;;6.22;;
54177;SDS011;40085;53.004;6.770;2022-08-16T03:51:40;10.95;;;7.13;;
54177;SDS011;40085;53.004;6.770;2022-08-16T03:54:07;10.65;;;7.18;;
54177;SDS011;40085;53.004;6.770;2022-08-16T03:56:33;9.27;;;6.93;;
54177;SDS011;40085;53.004;6.770;2022-08-16T03:58:59;10.82;;;7.50;;
54177;SDS011;40085;53.004;6.770;2022-08-16T04:01:24;14.50;;;8.18;;
54177;SDS011;40085;53.004;6.770;2022-08-16T04:03:51;10.23;;;7.82;;
54177;SDS011;40085;53.004;6.770;2022-08-16T04:06:17;9.10;;;7.45;;
54177;SDS011;40085;53.004;6.770;2022-08-16T04:08:44;9.85;;;8.20;;
54177;SDS011;40085;53.004;6.770;2022-08-16T04:11:12;11.07;;;7.72;;
54177;SDS011;40085;53.004;6.770;2022-08-16T04:13:38;12.93;;;7.70;;
54177;SDS011;40085;53.004;6.770;2022-08-16T04:16:04;13.98;;;8.88;;
54177;SDS011;40085;53.004;6.770;2022-08-16T04:18:30;13.63;;;7.90;;
54177;SDS011;40085;53.004;6.770;2022-08-16T04:20:56;12.73;;;8.50;;
54177;SDS011;40085;53.004;6.770;2022-08-16T04:23:22;13.50;;;7.97;;
54177;SDS011;40085;53.004;6.770;2022-08-16T04:25:48;10.93;;;7.40;;
54177;SDS011;40085;53.004;6.770;2022-08-16T04:28:14;11.13;;;8.18;;
54177;SDS011;40085;53.004;6.770;2022-08-16T04:30:40;13.60;;;7.55;;
54177;SDS011;40085;53.004;6.770;2022-08-16T04:33:08;10.65;;;7.53;;
54177;SDS011;40085;53.004;6.770;2022-08-16T04:35:34;11.85;;;7.40;;
54177;SDS011;40085;53.004;6.770;2022-08-16T04:38:00;11.40;;;6.85;;
54177;SDS011;40085;53.004;6.770;2022-08-16T04:40:26;10.38;;;7.97;;
54177;SDS011;40085;53.004;6.770;2022-08-16T04:42:52;12.25;;;8.00;;
54177;SDS011;40085;53.004;6.770;2022-08-16T04:45:18;11.32;;;8.20;;
54177;SDS011;40085;53.004;6.770;2022-08-16T04:47:45;12.15;;;8.60;;
54177;SDS011;40085;53.004;6.770;2022-08-16T04:50:12;10.90;;;8.07;;
54177;SDS011;40085;53.004;6.770;2022-08-16T04:55:09;11.38;;;7.78;;
54177;SDS011;40085;53.004;6.770;2022-08-16T04:57:38;11.77;;;8.98;;
54177;SDS011;40085;53.004;6.770;2022-08-16T05:00:06;13.60;;;7.97;;
54177;SDS011;40085;53.004;6.770;2022-08-16T05:02:34;10.93;;;7.85;;
54177;SDS011;40085;53.004;6.770;2022-08-16T05:05:00;12.90;;;8.50;;
54177;SDS011;40085;53.004;6.770;2022-08-16T05:07:26;9.77;;;7.55;;
54177;SDS011;40085;53.004;6.770;2022-08-16T05:09:52;15.43;;;9.05;;
54177;SDS011;40085;53.004;6.770;2022-08-16T05:12:17;14.73;;;9.57;;
54177;SDS011;40085;53.004;6.770;2022-08-16T05:14:43;10.18;;;7.50;;
54177;SDS011;40085;53.004;6.770;2022-08-16T05:17:08;15.48;;;9.57;;
54177;SDS011;40085;53.004;6.770;2022-08-16T05:19:34;14.57;;;9.35;;
54177;SDS011;40085;53.004;6.770;2022-08-16T05:22:00;13.45;;;9.48;;
54177;SDS011;40085;53.004;6.770;2022-08-16T05:24:26;14.90;;;10.07;;
54177;SDS011;40085;53.004;6.770;2022-08-16T05:26:52;17.52;;;9.70;;
54177;SDS011;40085;53.004;6.770;2022-08-16T05:29:17;14.95;;;10.25;;
54177;SDS011;40085;53.004;6.770;2022-08-16T05:31:43;13.65;;;9.93;;
54177;SDS011;40085;53.004;6.770;2022-08-16T05:34:09;15.70;;;10.18;;
54177;SDS011;40085;53.004;6.770;2022-08-16T05:36:35;15.90;;;10.27;;
54177;SDS011;40085;53.004;6.770;2022-08-16T05:39:01;16.55;;;10.07;;
54177;SDS011;40085;53.004;6.770;2022-08-16T05:43:57;15.90;;;10.00;;
54177;SDS011;40085;53.004;6.770;2022-08-16T05:46:24;19.60;;;10.13;;
54177;SDS011;40085;53.004;6.770;2022-08-16T05:48:50;14.40;;;9.38;;
54177;SDS011;40085;53.004;6.770;2022-08-16T05:51:15;14.38;;;9.75;;
54177;SDS011;40085;53.004;6.770;2022-08-16T05:53:42;17.50;;;9.75;;
54177;SDS011;40085;53.004;6.770;2022-08-16T05:56:08;11.68;;;9.02;;
54177;SDS011;40085;53.004;6.770;2022-08-16T05:58:34;12.32;;;8.73;;
54177;SDS011;40085;53.004;6.770;2022-08-16T06:01:00;13.52;;;9.07;;
54177;SDS011;40085;53.004;6.770;2022-08-16T06:03:25;14.38;;;8.27;;
54177;SDS011;40085;53.004;6.770;2022-08-16T06:05:51;13.02;;;7.70;;
54177;SDS011;40085;53.004;6.770;2022-08-16T06:08:17;12.10;;;8.60;;
54177;SDS011;40085;53.004;6.770;2022-08-16T06:10:43;10.75;;;7.90;;
54177;SDS011;40085;53.004;6.770;2022-08-16T06:13:08;11.63;;;7.75;;
54177;SDS011;40085;53.004;6.770;2022-08-16T06:15:34;13.20;;;7.82;;
54177;SDS011;40085;53.004;6.770;2022-08-16T06:18:00;12.75;;;8.15;;
54177;SDS011;40085;53.004;6.770;2022-08-16T06:20:26;12.38;;;7.60;;
54177;SDS011;40085;53.004;6.770;2022-08-16T06:22:53;9.48;;;7.05;;
54177;SDS011;40085;53.004;6.770;2022-08-16T06:25:21;11.98;;;6.88;;
54177;SDS011;40085;53.004;6.770;2022-08-16T06:27:47;9.13;;;6.07;;
54177;SDS011;40085;53.004;6.770;2022-08-16T06:30:13;10.48;;;6.40;;
54177;SDS011;40085;53.004;6.770;2022-08-16T06:32:39;7.35;;;5.38;;
54177;SDS011;40085;53.004;6.770;2022-08-16T06:35:05;8.75;;;5.90;;
54177;SDS011;40085;53.004;6.770;2022-08-16T06:37:32;11.57;;;6.05;;
54177;SDS011;40085;53.004;6.770;2022-08-16T06:39:58;8.73;;;5.53;;
54177;SDS011;40085;53.004;6.770;2022-08-16T06:42:25;7.22;;;5.30;;
54177;SDS011;40085;53.004;6.770;2022-08-16T06:44:50;7.38;;;5.78;;
54177;SDS011;40085;53.004;6.770;2022-08-16T06:47:16;10.65;;;5.57;;
54177;SDS011;40085;53.004;6.770;2022-08-16T06:49:42;8.57;;;5.60;;
54177;SDS011;40085;53.004;6.770;2022-08-16T06:52:08;9.45;;;5.35;;
54177;SDS011;40085;53.004;6.770;2022-08-16T06:54:34;8.40;;;5.25;;
54177;SDS011;40085;53.004;6.770;2022-08-16T06:57:00;8.30;;;5.57;;
54177;SDS011;40085;53.004;6.770;2022-08-16T06:59:26;11.27;;;5.78;;
54177;SDS011;40085;53.004;6.770;2022-08-16T07:01:51;8.15;;;5.32;;
54177;SDS011;40085;53.004;6.770;2022-08-16T07:04:18;9.15;;;5.60;;
54177;SDS011;40085;53.004;6.770;2022-08-16T07:06:44;7.97;;;5.38;;
54177;SDS011;40085;53.004;6.770;2022-08-16T07:09:13;7.45;;;5.68;;
54177;SDS011;40085;53.004;6.770;2022-08-16T07:11:39;8.63;;;5.47;;
54177;SDS011;40085;53.004;6.770;2022-08-16T07:14:05;8.23;;;5.30;;
54177;SDS011;40085;53.004;6.770;2022-08-16T07:16:31;7.65;;;5.80;;
54177;SDS011;40085;53.004;6.770;2022-08-16T07:18:56;7.80;;;5.50;;
54177;SDS011;40085;53.004;6.770;2022-08-16T07:21:23;7.65;;;5.57;;
54177;SDS011;40085;53.004;6.770;2022-08-16T07:23:49;8.80;;;5.75;;
54177;SDS011;40085;53.004;6.770;2022-08-16T07:26:20;9.75;;;5.05;;
54177;SDS011;40085;53.004;6.770;2022-08-16T07:28:47;7.68;;;5.03;;
54177;SDS011;40085;53.004;6.770;2022-08-16T07:31:14;6.90;;;5.10;;
54177;SDS011;40085;53.004;6.770;2022-08-16T07:33:41;8.43;;;5.45;;
54177;SDS011;40085;53.004;6.770;2022-08-16T07:36:09;8.27;;;5.72;;
54177;SDS011;40085;53.004;6.770;2022-08-16T07:38:37;10.18;;;6.13;;
54177;SDS011;40085;53.004;6.770;2022-08-16T07:41:03;8.50;;;5.43;;
54177;SDS011;40085;53.004;6.770;2022-08-16T07:43:30;8.40;;;5.18;;
54177;SDS011;40085;53.004;6.770;2022-08-16T07:45:56;12.07;;;6.60;;
54177;SDS011;40085;53.004;6.770;2022-08-16T07:48:23;7.60;;;5.70;;
54177;SDS011;40085;53.004;6.770;2022-08-16T07:50:48;12.73;;;6.93;;
54177;SDS011;40085;53.004;6.770;2022-08-16T07:53:14;10.90;;;6.00;;
54177;SDS011;40085;53.004;6.770;2022-08-16T07:55:40;10.32;;;5.35;;
54177;SDS011;40085;53.004;6.770;2022-08-16T07:58:06;9.02;;;5.57;;
54177;SDS011;40085;53.004;6.770;2022-08-16T08:00:32;12.27;;;5.93;;
54177;SDS011;40085;53.004;6.770;2022-08-16T08:02:58;12.93;;;6.28;;
54177;SDS011;40085;53.004;6.770;2022-08-16T08:05:24;9.05;;;5.78;;
54177;SDS011;40085;53.004;6.770;2022-08-16T08:07:52;11.60;;;5.68;;
54177;SDS011;40085;53.004;6.770;2022-08-16T08:10:19;10.63;;;5.70;;
54177;SDS011;40085;53.004;6.770;2022-08-16T08:12:47;8.88;;;6.03;;
54177;SDS011;40085;53.004;6.770;2022-08-16T08:15:14;11.82;;;5.32;;
54177;SDS011;40085;53.004;6.770;2022-08-16T08:17:41;6.60;;;5.05;;
54177;SDS011;40085;53.004;6.770;2022-08-16T08:20:08;7.18;;;5.05;;
54177;SDS011;40085;53.004;6.770;2022-08-16T08:22:35;8.27;;;5.45;;
54177;SDS011;40085;53.004;6.770;2022-08-16T08:25:03;8.25;;;5.50;;
54177;SDS011;40085;53.004;6.770;2022-08-16T08:27:30;7.40;;;5.00;;
54177;SDS011;40085;53.004;6.770;2022-08-16T08:29:56;6.68;;;4.43;;
54177;SDS011;40085;53.004;6.770;2022-08-16T08:32:22;9.55;;;5.30;;
54177;SDS011;40085;53.004;6.770;2022-08-16T08:34:52;8.82;;;5.40;;
54177;SDS011;40085;53.004;6.770;2022-08-16T08:37:19;6.22;;;4.25;;
54177;SDS011;40085;53.004;6.770;2022-08-16T08:39:45;7.00;;;5.05;;
54177;SDS011;40085;53.004;6.770;2022-08-16T08:42:12;5.90;;;3.92;;
54177;SDS011;40085;53.004;6.770;2022-08-16T08:44:39;8.05;;;4.45;;
54177;SDS011;40085;53.004;6.770;2022-08-16T08:47:05;5.68;;;3.88;;
54177;SDS011;40085;53.004;6.770;2022-08-16T08:49:32;7.13;;;4.93;;
54177;SDS011;40085;53.004;6.770;2022-08-16T08:51:59;6.88;;;4.10;;
54177;SDS011;40085;53.004;6.770;2022-08-16T08:54:24;7.40;;;4.45;;
54177;SDS011;40085;53.004;6.770;2022-08-16T08:56:51;6.93;;;4.43;;
54177;SDS011;40085;53.004;6.770;2022-08-16T08:59:17;5.90;;;4.25;;
54177;SDS011;40085;53.004;6.770;2022-08-16T09:01:43;6.40;;;4.05;;
54177;SDS011;40085;53.004;6.770;2022-08-16T09:04:10;4.65;;;3.72;;
54177;SDS011;40085;53.004;6.770;2022-08-16T09:06:36;5.00;;;3.65;;
54177;SDS011;40085;53.004;6.770;2022-08-16T09:09:03;5.30;;;3.63;;
54177;SDS011;40085;53.004;6.770;2022-08-16T09:11:30;6.20;;;4.00;;
54177;SDS011;40085;53.004;6.770;2022-08-16T09:13:58;5.47;;;3.97;;
54177;SDS011;40085;53.004;6.770;2022-08-16T09:16:24;6.97;;;4.18;;
54177;SDS011;40085;53.004;6.770;2022-08-16T09:18:50;5.80;;;4.22;;
54177;SDS011;40085;53.004;6.770;2022-08-16T09:21:15;5.63;;;4.00;;
54177;SDS011;40085;53.004;6.770;2022-08-16T09:23:42;8.57;;;5.95;;
54177;SDS011;40085;53.004;6.770;2022-08-16T09:26:08;7.30;;;4.13;;
54177;SDS011;40085;53.004;6.770;2022-08-16T09:28:37;10.43;;;4.85;;
54177;SDS011;40085;53.004;6.770;2022-08-16T09:31:03;6.38;;;4.07;;
54177;SDS011;40085;53.004;6.770;2022-08-16T09:33:29;4.85;;;3.80;;
54177;SDS011;40085;53.004;6.770;2022-08-16T09:35:55;4.60;;;3.35;;
54177;SDS011;40085;53.004;6.770;2022-08-16T09:38:21;4.38;;;3.20;;
54177;SDS011;40085;53.004;6.770;2022-08-16T09:40:48;5.00;;;3.53;;
54177;SDS011;40085;53.004;6.770;2022-08-16T09:43:16;4.38;;;3.45;;
54177;SDS011;40085;53.004;6.770;2022-08-16T09:45:44;3.97;;;3.20;;
54177;SDS011;40085;53.004;6.770;2022-08-16T09:48:11;4.95;;;3.70;;
54177;SDS011;40085;53.004;6.770;2022-08-16T09:50:38;7.30;;;3.90;;
54177;SDS011;40085;53.004;6.770;2022-08-16T09:53:16;4.72;;;3.63;;
54177;SDS011;40085;53.004;6.770;2022-08-16T09:55:44;9.20;;;3.65;;
54177;SDS011;40085;53.004;6.770;2022-08-16T09:58:12;5.15;;;3.67;;
54177;SDS011;40085;53.004;6.770;2022-08-16T10:00:38;5.90;;;3.80;;
54177;SDS011;40085;53.004;6.770;2022-08-16T10:03:04;4.95;;;3.42;;
54177;SDS011;40085;53.004;6.770;2022-08-16T10:05:30;7.63;;;3.28;;
54177;SDS011;40085;53.004;6.770;2022-08-16T10:07:57;3.55;;;2.75;;
54177;SDS011;40085;53.004;6.770;2022-08-16T10:10:23;4.57;;;3.17;;
54177;SDS011;40085;53.004;6.770;2022-08-16T10:12:49;4.78;;;3.17;;
54177;SDS011;40085;53.004;6.770;2022-08-16T10:15:34;3.25;;;2.65;;
54177;SDS011;40085;53.004;6.770;2022-08-16T10:18:01;3.60;;;2.90;;
54177;SDS011;40085;53.004;6.770;2022-08-16T10:20:32;3.90;;;2.75;;
54177;SDS011;40085;53.004;6.770;2022-08-16T10:23:00;4.57;;;3.30;;
54177;SDS011;40085;53.004;6.770;2022-08-16T10:25:26;4.13;;;2.70;;
54177;SDS011;40085;53.004;6.770;2022-08-16T10:27:52;4.70;;;3.00;;
54177;SDS011;40085;53.004;6.770;2022-08-16T10:30:17;5.38;;;3.10;;
54177;SDS011;40085;53.004;6.770;2022-08-16T10:32:43;4.32;;;2.75;;
54177;SDS011;40085;53.004;6.770;2022-08-16T10:35:09;3.38;;;2.38;;
54177;SDS011;40085;53.004;6.770;2022-08-16T10:37:35;3.05;;;2.13;;
54177;SDS011;40085;53.004;6.770;2022-08-16T10:40:00;2.45;;;1.80;;
54177;SDS011;40085;53.004;6.770;2022-08-16T10:42:26;2.17;;;1.77;;
54177;SDS011;40085;53.004;6.770;2022-08-16T10:44:52;2.75;;;1.98;;
54177;SDS011;40085;53.004;6.770;2022-08-16T10:47:18;3.15;;;2.35;;
54177;SDS011;40085;53.004;6.770;2022-08-16T10:49:44;5.05;;;2.50;;
54177;SDS011;40085;53.004;6.770;2022-08-16T10:52:10;4.20;;;2.47;;
54177;SDS011;40085;53.004;6.770;2022-08-16T10:54:36;2.88;;;2.20;;
54177;SDS011;40085;53.004;6.770;2022-08-16T10:57:03;2.28;;;1.67;;
54177;SDS011;40085;53.004;6.770;2022-08-16T10:59:30;4.60;;;2.60;;
54177;SDS011;40085;53.004;6.770;2022-08-16T11:01:58;3.60;;;2.33;;
54177;SDS011;40085;53.004;6.770;2022-08-16T11:04:24;4.22;;;2.42;;
54177;SDS011;40085;53.004;6.770;2022-08-16T11:06:51;3.03;;;2.10;;
54177;SDS011;40085;53.004;6.770;2022-08-16T11:09:17;3.55;;;2.38;;
54177;SDS011;40085;53.004;6.770;2022-08-16T11:11:43;4.50;;;2.38;;
54177;SDS011;40085;53.004;6.770;2022-08-16T11:14:08;4.47;;;2.75;;
54177;SDS011;40085;53.004;6.770;2022-08-16T11:16:34;2.88;;;2.15;;
54177;SDS011;40085;53.004;6.770;2022-08-16T11:19:00;3.10;;;2.10;;
54177;SDS011;40085;53.004;6.770;2022-08-16T11:21:28;5.55;;;2.75;;
54177;SDS011;40085;53.004;6.770;2022-08-16T11:23:54;4.38;;;2.33;;
54177;SDS011;40085;53.004;6.770;2022-08-16T11:26:20;3.20;;;2.28;;
54177;SDS011;40085;53.004;6.770;2022-08-16T11:28:46;2.53;;;2.05;;
54177;SDS011;40085;53.004;6.770;2022-08-16T11:31:14;2.15;;;1.95;;
54177;SDS011;40085;53.004;6.770;2022-08-16T11:33:41;2.88;;;2.22;;
54177;SDS011;40085;53.004;6.770;2022-08-16T11:36:07;2.85;;;1.80;;
54177;SDS011;40085;53.004;6.770;2022-08-16T11:38:32;2.70;;;2.13;;
54177;SDS011;40085;53.004;6.770;2022-08-16T11:40:59;2.25;;;2.05;;
54177;SDS011;40085;53.004;6.770;2022-08-16T11:43:30;3.33;;;1.80;;
54177;SDS011;40085;53.004;6.770;2022-08-16T11:45:58;2.83;;;2.00;;
54177;SDS011;40085;53.004;6.770;2022-08-16T11:48:26;4.35;;;2.15;;
54177;SDS011;40085;53.004;6.770;2022-08-16T11:50:54;3.30;;;2.55;;
54177;SDS011;40085;53.004;6.770;2022-08-16T11:53:21;3.10;;;1.98;;
54177;SDS011;40085;53.004;6.770;2022-08-16T11:55:48;4.35;;;2.22;;
54177;SDS011;40085;53.004;6.770;2022-08-16T11:58:16;5.28;;;2.30;;
54177;SDS011;40085;53.004;6.770;2022-08-16T12:00:42;3.72;;;2.30;;
54177;SDS011;40085;53.004;6.770;2022-08-16T12:03:10;2.30;;;1.75;;
54177;SDS011;40085;53.004;6.770;2022-08-16T12:05:37;4.25;;;2.17;;
54177;SDS011;40085;53.004;6.770;2022-08-16T12:08:05;2.42;;;1.80;;
54177;SDS011;40085;53.004;6.770;2022-08-16T12:10:32;2.85;;;2.13;;
54177;SDS011;40085;53.004;6.770;2022-08-16T12:12:59;3.28;;;2.10;;
54177;SDS011;40085;53.004;6.770;2022-08-16T12:15:24;3.70;;;2.40;;
54177;SDS011;40085;53.004;6.770;2022-08-16T12:17:51;4.00;;;2.08;;
54177;SDS011;40085;53.004;6.770;2022-08-16T12:20:21;3.40;;;2.20;;
54177;SDS011;40085;53.004;6.770;2022-08-16T12:22:50;2.95;;;2.33;;
54177;SDS011;40085;53.004;6.770;2022-08-16T12:25:17;3.13;;;2.20;;
54177;SDS011;40085;53.004;6.770;2022-08-16T12:27:44;3.35;;;2.45;;
54177;SDS011;40085;53.004;6.770;2022-08-16T12:30:12;2.83;;;2.00;;
54177;SDS011;40085;53.004;6.770;2022-08-16T12:32:40;4.47;;;2.22;;
54177;SDS011;40085;53.004;6.770;2022-08-16T12:35:08;3.08;;;2.50;;
54177;SDS011;40085;53.004;6.770;2022-08-16T12:37:37;3.28;;;2.13;;
54177;SDS011;40085;53.004;6.770;2022-08-16T12:40:05;3.25;;;2.03;;
54177;SDS011;40085;53.004;6.770;2022-08-16T12:42:32;3.33;;;2.30;;
54177;SDS011;40085;53.004;6.770;2022-08-16T12:44:59;3.13;;;2.50;;
54177;SDS011;40085;53.004;6.770;2022-08-16T12:47:26;4.43;;;2.55;;
54177;SDS011;40085;53.004;6.770;2022-08-16T12:50:11;4.60;;;2.75;;
54177;SDS011;40085;53.004;6.770;2022-08-16T12:52:37;2.85;;;2.25;;
54177;SDS011;40085;53.004;6.770;2022-08-16T12:55:03;2.88;;;2.25;;
54177;SDS011;40085;53.004;6.770;2022-08-16T12:57:31;5.70;;;2.60;;
54177;SDS011;40085;53.004;6.770;2022-08-16T12:59:57;3.13;;;2.47;;
54177;SDS011;40085;53.004;6.770;2022-08-16T13:02:24;4.18;;;2.47;;
54177;SDS011;40085;53.004;6.770;2022-08-16T13:04:51;4.65;;;2.80;;
54177;SDS011;40085;53.004;6.770;2022-08-16T13:07:16;4.25;;;2.47;;
54177;SDS011;40085;53.004;6.770;2022-08-16T13:09:42;3.53;;;2.47;;
54177;SDS011;40085;53.004;6.770;2022-08-16T13:12:18;3.33;;;2.53;;
54177;SDS011;40085;53.004;6.770;2022-08-16T13:14:48;2.38;;;2.15;;
54177;SDS011;40085;53.004;6.770;2022-08-16T13:17:17;2.35;;;2.15;;
54177;SDS011;40085;53.004;6.770;2022-08-16T13:19:49;3.08;;;2.40;;
54177;SDS011;40085;53.004;6.770;2022-08-16T13:22:16;6.38;;;2.70;;
54177;SDS011;40085;53.004;6.770;2022-08-16T13:24:42;2.38;;;2.17;;
54177;SDS011;40085;53.004;6.770;2022-08-16T13:27:08;4.90;;;2.75;;
54177;SDS011;40085;53.004;6.770;2022-08-16T13:29:34;3.83;;;2.38;;
54177;SDS011;40085;53.004;6.770;2022-08-16T13:31:59;3.28;;;2.63;;
54177;SDS011;40085;53.004;6.770;2022-08-16T13:34:25;4.95;;;2.22;;
54177;SDS011;40085;53.004;6.770;2022-08-16T13:36:51;3.70;;;2.50;;
54177;SDS011;40085;53.004;6.770;2022-08-16T13:39:16;2.83;;;2.42;;
54177;SDS011;40085;53.004;6.770;2022-08-16T13:41:42;4.10;;;3.00;;
54177;SDS011;40085;53.004;6.770;2022-08-16T13:44:08;3.70;;;2.75;;
54177;SDS011;40085;53.004;6.770;2022-08-16T13:46:34;4.13;;;3.20;;
54177;SDS011;40085;53.004;6.770;2022-08-16T13:49:01;4.07;;;2.90;;
54177;SDS011;40085;53.004;6.770;2022-08-16T13:51:27;5.55;;;2.97;;
54177;SDS011;40085;53.004;6.770;2022-08-16T13:53:54;4.82;;;3.45;;
54177;SDS011;40085;53.004;6.770;2022-08-16T13:56:22;4.78;;;3.63;;
54177;SDS011;40085;53.004;6.770;2022-08-16T13:58:49;4.35;;;3.53;;
54177;SDS011;40085;53.004;6.770;2022-08-16T14:01:16;4.07;;;3.58;;
54177;SDS011;40085;53.004;6.770;2022-08-16T14:03:42;6.88;;;3.15;;
54177;SDS011;40085;53.004;6.770;2022-08-16T14:06:09;4.35;;;3.42;;
54177;SDS011;40085;53.004;6.770;2022-08-16T14:08:35;4.25;;;3.28;;
54177;SDS011;40085;53.004;6.770;2022-08-16T14:11:01;3.72;;;3.15;;
54177;SDS011;40085;53.004;6.770;2022-08-16T14:13:29;2.95;;;2.65;;
54177;SDS011;40085;53.004;6.770;2022-08-16T14:15:56;3.08;;;2.70;;
54177;SDS011;40085;53.004;6.770;2022-08-16T14:18:21;2.97;;;2.67;;
54177;SDS011;40085;53.004;6.770;2022-08-16T14:20:47;4.80;;;2.85;;
54177;SDS011;40085;53.004;6.770;2022-08-16T14:23:13;4.63;;;2.75;;
54177;SDS011;40085;53.004;6.770;2022-08-16T14:25:38;3.63;;;2.75;;
54177;SDS011;40085;53.004;6.770;2022-08-16T14:28:04;5.25;;;2.72;;
54177;SDS011;40085;53.004;6.770;2022-08-16T14:30:30;4.00;;;2.85;;
54177;SDS011;40085;53.004;6.770;2022-08-16T14:32:57;3.03;;;2.72;;
54177;SDS011;40085;53.004;6.770;2022-08-16T14:35:25;5.28;;;2.75;;
54177;SDS011;40085;53.004;6.770;2022-08-16T14:40:19;4.68;;;3.10;;
54177;SDS011;40085;53.004;6.770;2022-08-16T14:42:48;4.07;;;2.92;;
54177;SDS011;40085;53.004;6.770;2022-08-16T14:45:15;3.85;;;2.97;;
54177;SDS011;40085;53.004;6.770;2022-08-16T14:47:44;3.65;;;3.03;;
54177;SDS011;40085;53.004;6.770;2022-08-16T14:50:11;4.70;;;3.28;;
54177;SDS011;40085;53.004;6.770;2022-08-16T14:52:43;6.00;;;2.92;;